createdAt,value
2019-05-03T00:01:18.956Z,10.54
2019-05-03T00:03:49.758Z,10.52
2019-05-03T00:06:20.375Z,10.61
2019-05-03T00:08:53.124Z,10.52
2019-05-03T00:11:23.790Z,10.49
2019-05-03T00:13:54.484Z,10.53
2019-05-03T00:16:26.839Z,10.54
2019-05-03T00:18:57.435Z,10.55
2019-05-03T00:21:29.773Z,10.58
2019-05-03T00:24:02.413Z,10.60
2019-05-03T00:26:44.295Z,10.56
2019-05-03T00:29:26.037Z,10.41
2019-05-03T00:31:57.741Z,10.48
2019-05-03T00:34:46.565Z,10.42
2019-05-03T00:37:22.190Z,10.43
2019-05-03T00:40:07.546Z,10.41
2019-05-03T00:42:43.586Z,10.40
2019-05-03T00:45:26.652Z,10.33
2019-05-03T00:47:57.275Z,10.42
2019-05-03T00:50:29.056Z,10.38
2019-05-03T00:52:59.664Z,10.35
2019-05-03T00:55:32.612Z,10.37
2019-05-03T00:58:02.820Z,10.33
2019-05-03T01:00:42.049Z,10.37
2019-05-03T01:03:12.724Z,10.33
2019-05-03T01:05:43.430Z,10.32
2019-05-03T01:08:14.169Z,10.26
2019-05-03T01:10:44.782Z,10.32
2019-05-03T01:13:15.429Z,10.30
2019-05-03T01:15:56.552Z,10.28
2019-05-03T01:18:28.232Z,10.31
2019-05-03T01:20:58.850Z,10.34
2019-05-03T01:23:29.523Z,10.33
2019-05-03T01:26:00.118Z,10.31
2019-05-03T01:28:32.337Z,10.28
2019-05-03T01:31:03.198Z,10.34
2019-05-03T01:33:33.982Z,10.36
2019-05-03T01:36:04.925Z,10.34
2019-05-03T01:38:35.662Z,10.33
2019-05-03T01:41:07.401Z,10.32
2019-05-03T01:43:38.314Z,10.30
2019-05-03T01:46:11.875Z,10.33
2019-05-03T01:48:46.777Z,10.30
2019-05-03T01:51:32.591Z,10.32
2019-05-03T01:54:03.373Z,10.33
2019-05-03T01:56:35.050Z,10.33
2019-05-03T01:59:05.800Z,10.35
2019-05-03T02:02:07.433Z,10.34
2019-05-03T02:04:42.648Z,10.41
2019-05-03T02:07:13.339Z,10.37
2019-05-03T02:09:46.167Z,10.34
2019-05-03T02:12:16.809Z,10.32
2019-05-03T02:14:51.579Z,10.33
2019-05-03T02:17:22.697Z,10.16
2019-05-03T02:19:53.458Z,10.20
2019-05-03T02:22:24.180Z,10.18
2019-05-03T02:24:54.830Z,10.19
2019-05-03T02:27:25.433Z,10.15
2019-05-03T02:30:03.032Z,10.11
2019-05-03T02:32:33.342Z,10.08
2019-05-03T02:35:07.643Z,10.07
2019-05-03T02:37:40.019Z,10.02
2019-05-03T02:40:13.032Z,10.05
2019-05-03T02:42:46.448Z,10.10
2019-05-03T02:45:21.802Z,10.08
2019-05-03T02:47:57.085Z,10.04
2019-05-03T02:50:27.794Z,10.05
2019-05-03T02:53:00.515Z,9.95
2019-05-03T02:55:31.123Z,9.89
2019-05-03T02:58:01.730Z,9.95
2019-05-03T03:00:59.110Z,9.88
2019-05-03T03:03:30.908Z,9.88
2019-05-03T03:06:06.772Z,9.92
2019-05-03T03:08:38.157Z,9.86
2019-05-03T03:11:09.147Z,9.83
2019-05-03T03:13:40.672Z,9.83
2019-05-03T03:16:20.573Z,9.86
2019-05-03T03:18:56.939Z,9.76
2019-05-03T03:21:30.734Z,9.80
2019-05-03T03:24:07.177Z,9.82
2019-05-03T03:26:43.130Z,9.78
2019-05-03T03:29:15.718Z,9.79
2019-05-03T03:32:11.716Z,9.79
2019-05-03T03:34:54.929Z,9.76
2019-05-03T03:37:19.967Z,9.77
2019-05-03T03:39:51.439Z,9.75
2019-05-03T03:42:24.991Z,9.72
2019-05-03T03:44:56.406Z,9.78
2019-05-03T03:47:28.830Z,9.80
2019-05-03T03:49:59.669Z,9.64
2019-05-03T03:52:32.411Z,9.56
2019-05-03T03:55:16.137Z,9.54
2019-05-03T03:57:52.398Z,9.39
2019-05-03T04:00:32.356Z,9.20
2019-05-03T04:03:05.605Z,9.19
2019-05-03T04:05:36.542Z,9.19
2019-05-03T04:08:07.372Z,9.13
2019-05-03T04:10:39.163Z,9.22
2019-05-03T04:13:15.743Z,9.08
2019-05-03T04:15:47.192Z,9.16
2019-05-03T04:18:22.294Z,9.05
2019-05-03T04:20:52.868Z,9.04
2019-05-03T04:23:26.080Z,8.92
2019-05-03T04:25:56.804Z,8.78
2019-05-03T04:28:27.666Z,8.75
2019-05-03T04:30:58.534Z,8.62
2019-05-03T04:33:29.226Z,8.69
2019-05-03T04:35:59.905Z,8.74
2019-05-03T04:38:30.643Z,8.69
2019-05-03T04:41:01.404Z,8.70
2019-05-03T04:43:35.508Z,8.76
2019-05-03T04:46:09.162Z,8.77
2019-05-03T04:48:39.915Z,8.82
2019-05-03T04:51:10.676Z,8.88
2019-05-03T04:53:45.482Z,8.93
2019-05-03T04:56:16.876Z,8.95
2019-05-03T04:58:48.112Z,9.02
2019-05-03T05:01:19.955Z,8.96
2019-05-03T05:03:50.585Z,9.01
2019-05-03T05:06:21.297Z,9.05
2019-05-03T05:08:55.174Z,9.08
2019-05-03T05:11:26.448Z,8.94
2019-05-03T05:13:58.306Z,8.96
2019-05-03T05:16:28.989Z,9.01
2019-05-03T05:19:05.665Z,8.99
2019-05-03T05:21:37.977Z,8.96
2019-05-03T05:24:08.594Z,9.03
2019-05-03T05:26:40.813Z,9.06
2019-05-03T05:29:15.143Z,9.12
2019-05-03T05:31:45.899Z,9.15
2019-05-03T05:34:17.604Z,9.14
2019-05-03T05:36:49.219Z,9.06
2019-05-03T05:39:21.887Z,9.24
2019-05-03T05:42:00.270Z,9.20
2019-05-03T05:44:30.935Z,9.21
2019-05-03T05:47:21.549Z,9.22
2019-05-03T05:50:05.007Z,9.10
2019-05-03T05:52:35.662Z,9.20
2019-05-03T05:55:10.937Z,9.20
2019-05-03T05:58:04.689Z,9.25
2019-05-03T06:00:31.058Z,9.22
2019-05-03T06:03:01.669Z,9.27
2019-05-03T06:05:32.390Z,9.23
2019-05-03T06:08:10.663Z,9.24
2019-05-03T06:10:51.820Z,9.33
2019-05-03T06:13:28.216Z,9.31
2019-05-03T06:16:06.419Z,9.37
2019-05-03T06:18:54.426Z,9.39
2019-05-03T06:21:29.683Z,9.31
2019-05-03T06:24:02.117Z,9.43
2019-05-03T06:26:37.091Z,9.33
2019-05-03T06:29:08.126Z,9.41
2019-05-03T06:31:51.134Z,9.44
2019-05-03T06:34:25.220Z,9.52
2019-05-03T06:36:57.644Z,9.70
2019-05-03T06:39:28.529Z,9.71
2019-05-03T06:41:59.091Z,9.73
2019-05-03T06:44:34.957Z,9.83
2019-05-03T06:47:10.232Z,9.76
2019-05-03T06:49:44.801Z,9.83
2019-05-03T06:52:14.762Z,9.87
2019-05-03T06:54:55.347Z,9.82
2019-05-03T06:57:26.357Z,9.96
2019-05-03T07:00:01.338Z,9.96
2019-05-03T07:02:35.575Z,10.03
2019-05-03T07:05:26.716Z,9.92
2019-05-03T07:08:15.307Z,10.05
2019-05-03T07:10:52.307Z,9.97
2019-05-03T07:13:22.989Z,9.93
2019-05-03T07:15:55.997Z,9.86
2019-05-03T07:18:26.685Z,9.96
2019-05-03T07:20:58.413Z,9.94
2019-05-03T07:23:29.007Z,9.90
2019-05-03T07:26:00.796Z,9.89
2019-05-03T07:28:44.474Z,9.87
2019-05-03T07:31:04.817Z,9.81
2019-05-03T07:33:35.876Z,9.88
2019-05-03T07:36:06.759Z,9.85
2019-05-03T07:38:37.416Z,9.95
2019-05-03T07:41:08.020Z,10.00
2019-05-03T07:43:38.687Z,9.93
2019-05-03T07:46:09.336Z,10.00
2019-05-03T07:48:45.798Z,10.00
2019-05-03T07:51:17.528Z,10.00
2019-05-03T07:53:48.168Z,10.03
2019-05-03T07:56:18.838Z,10.09
2019-05-03T07:58:59.880Z,10.12
2019-05-03T08:01:25.304Z,10.21
2019-05-03T08:03:56.112Z,10.19
2019-05-03T08:06:26.856Z,10.31
2019-05-03T08:08:57.549Z,10.24
2019-05-03T08:11:28.334Z,10.29
2019-05-03T08:13:58.903Z,10.04
2019-05-03T08:16:31.685Z,10.25
2019-05-03T08:19:04.944Z,10.37
2019-05-03T08:21:41.282Z,10.60
2019-05-03T08:24:11.953Z,10.72
2019-05-03T08:26:42.729Z,10.67
2019-05-03T08:29:19.707Z,10.67
2019-05-03T08:32:00.910Z,10.64
2019-05-03T08:34:39.990Z,10.58
2019-05-03T08:37:12.343Z,10.65
2019-05-03T08:39:44.733Z,10.55
2019-05-03T08:42:20.940Z,10.69
2019-05-03T08:44:51.621Z,10.68
2019-05-03T08:47:24.808Z,10.67
2019-05-03T08:50:01.659Z,10.63
2019-05-03T08:52:36.620Z,10.69
2019-05-03T08:55:07.337Z,10.71
2019-05-03T08:57:38.036Z,10.79
2019-05-03T09:00:16.269Z,10.88
2019-05-03T09:02:46.933Z,10.99
2019-05-03T09:05:18.531Z,11.08
2019-05-03T09:07:50.874Z,10.73
2019-05-03T09:10:35.304Z,10.80
2019-05-03T09:13:11.460Z,10.72
2019-05-03T09:15:44.524Z,10.73
2019-05-03T09:18:17.565Z,10.84
2019-05-03T09:20:59.558Z,10.86
2019-05-03T09:23:39.820Z,10.74
2019-05-03T09:26:20.851Z,10.83
2019-05-03T09:28:51.615Z,10.80
2019-05-03T09:31:24.743Z,10.88
2019-05-03T09:33:58.823Z,10.90
2019-05-03T09:36:29.545Z,10.88
2019-05-03T09:39:00.309Z,10.84
2019-05-03T09:41:38.760Z,10.93
2019-05-03T09:44:09.483Z,10.87
2019-05-03T09:46:40.200Z,10.98
2019-05-03T09:49:22.455Z,10.91
2019-05-03T09:51:54.830Z,11.02
2019-05-03T09:54:27.275Z,11.14
2019-05-03T09:57:05.872Z,11.13
2019-05-03T09:59:36.548Z,11.17
2019-05-03T10:02:07.190Z,11.20
2019-05-03T10:04:44.641Z,11.19
2019-05-03T10:07:15.522Z,11.06
2019-05-03T10:09:51.984Z,11.00
2019-05-03T10:12:25.528Z,11.21
2019-05-03T10:14:57.562Z,11.21
2019-05-03T10:17:35.764Z,11.25
2019-05-03T10:20:08.182Z,11.28
2019-05-03T10:22:40.863Z,11.28
2019-05-03T10:25:11.860Z,11.37
2019-05-03T10:27:45.954Z,11.43
2019-05-03T10:30:20.083Z,11.44
2019-05-03T10:32:52.403Z,11.40
2019-05-03T10:35:27.288Z,11.29
2019-05-03T10:37:57.954Z,11.42
2019-05-03T10:40:32.452Z,11.38
2019-05-03T10:43:04.806Z,11.43
2019-05-03T10:45:35.631Z,11.55
2019-05-03T10:48:15.488Z,11.58
2019-05-03T10:50:45.947Z,11.64
2019-05-03T10:53:18.263Z,11.57
2019-05-03T10:56:20.223Z,11.72
2019-05-03T10:58:55.959Z,11.87
2019-05-03T11:01:33.053Z,11.95
2019-05-03T11:04:05.289Z,11.96
2019-05-03T11:06:37.098Z,11.83
2019-05-03T11:09:08.205Z,11.79
2019-05-03T11:11:38.856Z,11.64
2019-05-03T11:14:09.371Z,11.63
2019-05-03T11:16:42.049Z,11.46
2019-05-03T11:19:15.033Z,11.58
2019-05-03T11:21:47.869Z,11.78
2019-05-03T11:24:18.542Z,11.96
2019-05-03T11:26:52.113Z,11.98
2019-05-03T11:29:24.654Z,12.04
2019-05-03T11:32:14.901Z,11.75
2019-05-03T11:34:47.323Z,11.77
2019-05-03T11:37:35.757Z,11.79
2019-05-03T11:40:12.537Z,11.80
2019-05-03T11:42:52.498Z,11.80
2019-05-03T11:45:24.654Z,11.84
2019-05-03T11:47:55.374Z,11.89
2019-05-03T11:50:27.129Z,11.82
2019-05-03T11:52:57.779Z,11.95
2019-05-03T11:55:32.100Z,12.09
2019-05-03T11:58:05.687Z,12.20
2019-05-03T12:00:39.183Z,12.21
2019-05-03T12:03:18.984Z,12.16
2019-05-03T12:05:55.205Z,12.18
2019-05-03T12:08:27.008Z,11.99
2019-05-03T12:11:01.861Z,12.13
2019-05-03T12:13:32.599Z,12.25
2019-05-03T12:16:16.959Z,12.19
2019-05-03T12:18:49.383Z,12.36
2019-05-03T12:21:12.701Z,12.47
2019-05-03T12:23:46.742Z,12.71
2019-05-03T12:26:18.394Z,12.80
2019-05-03T12:28:55.234Z,12.82
2019-05-03T12:31:38.044Z,12.87
2019-05-03T12:34:05.960Z,12.83
2019-05-03T12:36:39.173Z,12.79
2019-05-03T12:39:24.192Z,12.62
2019-05-03T12:41:44.545Z,12.88
2019-05-03T12:44:15.306Z,12.88
2019-05-03T12:46:45.982Z,12.90
2019-05-03T12:49:16.946Z,12.90
2019-05-03T12:51:47.880Z,12.90
2019-05-03T12:54:20.590Z,12.73
2019-05-03T12:56:51.436Z,12.68
2019-05-03T12:59:36.728Z,12.74
2019-05-03T13:02:29.572Z,12.72
2019-05-03T13:05:00.242Z,12.63
2019-05-03T13:07:34.654Z,12.65
2019-05-03T13:10:05.652Z,12.87
2019-05-03T13:12:49.773Z,12.92
2019-05-03T13:15:09.182Z,12.92
2019-05-03T13:17:39.952Z,12.96
2019-05-03T13:20:12.515Z,13.06
2019-05-03T13:22:45.835Z,12.96
2019-05-03T13:25:27.097Z,12.67
2019-05-03T13:27:57.772Z,12.60
2019-05-03T13:30:28.366Z,12.81
2019-05-03T13:33:02.107Z,12.79
2019-05-03T13:35:32.704Z,12.77
2019-05-03T13:38:03.456Z,12.78
2019-05-03T13:40:35.926Z,12.94
2019-05-03T13:43:07.057Z,12.89
2019-05-03T13:45:37.759Z,12.95
2019-05-03T13:48:09.348Z,13.05
2019-05-03T13:50:40.327Z,12.91
2019-05-03T13:53:11.167Z,12.93
2019-05-03T13:55:44.569Z,13.01
2019-05-03T13:58:15.326Z,13.03
2019-05-03T14:00:47.930Z,13.04
2019-05-03T14:03:18.603Z,13.06
2019-05-03T14:05:49.208Z,12.98
2019-05-03T14:08:19.941Z,12.85
2019-05-03T14:10:50.526Z,12.83
2019-05-03T14:13:24.282Z,12.86
2019-05-03T14:15:55.947Z,12.84
2019-05-03T14:18:27.564Z,12.49
2019-05-03T14:21:05.037Z,12.45
2019-05-03T14:23:58.851Z,12.56
2019-05-03T14:26:44.544Z,12.51
2019-05-03T14:29:15.379Z,12.41
2019-05-03T14:31:46.342Z,12.58
2019-05-03T14:34:25.494Z,12.60
2019-05-03T14:36:56.324Z,12.63
2019-05-03T14:39:31.557Z,12.53
2019-05-03T14:42:04.765Z,12.50
2019-05-03T14:44:36.597Z,12.60
2019-05-03T14:47:07.334Z,12.50
2019-05-03T14:49:40.355Z,12.51
2019-05-03T14:52:12.119Z,12.59
2019-05-03T14:54:45.075Z,12.57
2019-05-03T14:57:20.605Z,12.62
2019-05-03T15:00:01.782Z,12.65
2019-05-03T15:02:52.015Z,12.63
2019-05-03T15:05:25.195Z,12.67
2019-05-03T15:07:55.949Z,12.62
2019-05-03T15:10:30.511Z,12.57
2019-05-03T15:13:01.357Z,12.48
2019-05-03T15:15:38.558Z,12.52
2019-05-03T15:18:09.226Z,12.38
2019-05-03T15:20:41.648Z,12.48
2019-05-03T15:23:14.686Z,12.44
2019-05-03T15:25:49.669Z,12.40
2019-05-03T15:28:20.264Z,12.37
2019-05-03T15:30:51.952Z,12.38
2019-05-03T15:33:23.345Z,12.40
2019-05-03T15:35:56.715Z,12.30
2019-05-03T15:38:27.497Z,12.34
2019-05-03T15:41:07.741Z,12.25
2019-05-03T15:44:00.491Z,12.02
2019-05-03T15:46:44.624Z,12.15
2019-05-03T15:49:15.438Z,12.14
2019-05-03T15:51:49.511Z,12.14
2019-05-03T15:54:20.419Z,12.15
2019-05-03T15:56:51.095Z,12.25
2019-05-03T15:59:31.170Z,12.12
2019-05-03T16:02:02.001Z,12.15
2019-05-03T16:04:32.717Z,12.18
2019-05-03T16:07:14.398Z,12.23
2019-05-03T16:09:46.509Z,12.21
2019-05-03T16:12:17.191Z,12.27
2019-05-03T16:14:49.842Z,12.24
2019-05-03T16:17:20.768Z,12.25
2019-05-03T16:19:51.393Z,12.04
2019-05-03T16:22:22.004Z,11.90
2019-05-03T16:24:52.741Z,11.94
2019-05-03T16:27:30.777Z,11.67
2019-05-03T16:30:04.562Z,11.87
2019-05-03T16:32:36.546Z,11.76
2019-05-03T16:35:09.748Z,11.84
2019-05-03T16:37:40.907Z,11.75
2019-05-03T16:40:14.219Z,11.67
2019-05-03T16:42:45.910Z,11.69
2019-05-03T16:45:17.067Z,11.68
2019-05-03T16:47:49.722Z,11.71
2019-05-03T16:50:20.408Z,11.72
2019-05-03T16:52:52.075Z,11.69
2019-05-03T16:55:25.639Z,11.71
2019-05-03T16:58:16.449Z,11.73
2019-05-03T17:00:49.437Z,11.68
2019-05-03T17:03:37.903Z,11.49
2019-05-03T17:06:00.699Z,11.40
2019-05-03T17:08:51.104Z,11.46
2019-05-03T17:11:26.581Z,11.50
2019-05-03T17:13:57.655Z,11.56
2019-05-03T17:16:30.039Z,11.59
2019-05-03T17:19:06.458Z,11.50
2019-05-03T17:21:37.133Z,11.46
2019-05-03T17:24:11.073Z,11.48
2019-05-03T17:26:41.888Z,11.32
2019-05-03T17:29:12.719Z,11.30
2019-05-03T17:31:44.493Z,11.25
2019-05-03T17:34:18.444Z,11.32
2019-05-03T17:36:49.534Z,11.29
2019-05-03T17:39:22.024Z,11.31
2019-05-03T17:42:15.916Z,11.34
2019-05-03T17:44:47.613Z,11.30
2019-05-03T17:47:19.571Z,11.29
2019-05-03T17:49:52.228Z,11.23
2019-05-03T17:52:40.798Z,11.31
2019-05-03T17:55:15.351Z,11.20
2019-05-03T17:57:50.361Z,11.14
2019-05-03T18:00:28.430Z,11.19
2019-05-03T18:02:59.411Z,11.12
2019-05-03T18:05:38.695Z,11.07
2019-05-03T18:08:13.834Z,11.20
2019-05-03T18:10:55.237Z,11.19
2019-05-03T18:13:28.752Z,11.14
2019-05-03T18:16:04.883Z,11.20
2019-05-03T18:18:38.641Z,11.24
2019-05-03T18:21:12.018Z,11.25
2019-05-03T18:23:45.580Z,11.17
2019-05-03T18:26:19.924Z,11.20
2019-05-03T18:28:55.429Z,11.14
2019-05-03T18:31:35.835Z,11.08
2019-05-03T18:34:18.675Z,11.17
2019-05-03T18:36:41.028Z,11.11
2019-05-03T18:39:14.581Z,11.03
2019-05-03T18:41:45.317Z,11.04
2019-05-03T18:44:17.624Z,11.05
2019-05-03T18:46:58.773Z,11.01
2019-05-03T18:49:29.479Z,11.03
2019-05-03T18:52:01.432Z,11.02
2019-05-03T18:54:35.068Z,11.02
2019-05-03T18:57:06.523Z,11.01
2019-05-03T18:59:37.466Z,11.01
2019-05-03T19:02:09.084Z,11.06
2019-05-03T19:04:48.328Z,10.96
2019-05-03T19:07:29.729Z,10.90
2019-05-03T19:10:05.419Z,10.97
2019-05-03T19:12:44.993Z,10.95
2019-05-03T19:15:16.708Z,10.90
2019-05-03T19:18:00.400Z,10.81
2019-05-03T19:20:35.390Z,10.88
2019-05-03T19:23:08.234Z,10.79
2019-05-03T19:25:46.758Z,10.80
2019-05-03T19:28:16.620Z,10.66
2019-05-03T19:30:47.524Z,10.62
2019-05-03T19:33:18.279Z,10.61
2019-05-03T19:35:49.096Z,10.70
2019-05-03T19:38:20.440Z,10.73
2019-05-03T19:40:51.270Z,10.64
2019-05-03T19:43:21.882Z,10.63
2019-05-03T19:45:52.712Z,10.65
2019-05-03T19:48:25.454Z,10.64
2019-05-03T19:50:57.264Z,10.60
2019-05-03T19:53:30.228Z,10.54
2019-05-03T19:56:01.242Z,10.58
2019-05-03T19:58:32.778Z,10.65
2019-05-03T20:01:05.683Z,10.57
2019-05-03T20:03:38.214Z,10.57
2019-05-03T20:06:10.815Z,10.51
2019-05-03T20:08:44.417Z,10.48
2019-05-03T20:11:17.770Z,10.52
2019-05-03T20:13:48.758Z,10.49
2019-05-03T20:16:20.614Z,10.53
2019-05-03T20:18:51.862Z,10.44
2019-05-03T20:21:25.137Z,10.53
2019-05-03T20:23:56.323Z,10.51
2019-05-03T20:26:27.889Z,10.53
2019-05-03T20:29:01.931Z,10.39
2019-05-03T20:31:35.358Z,10.35
2019-05-03T20:34:12.656Z,10.27
2019-05-03T20:36:46.877Z,10.22
2019-05-03T20:39:25.531Z,10.20
2019-05-03T20:41:57.032Z,10.16
2019-05-03T20:44:35.420Z,10.10
2019-05-03T20:47:10.840Z,10.13
2019-05-03T20:49:42.284Z,9.96
2019-05-03T20:52:17.130Z,10.03
2019-05-03T20:54:55.166Z,9.99
2019-05-03T20:57:26.110Z,9.98
2019-05-03T21:00:01.467Z,10.00
2019-05-03T21:02:34.491Z,9.89
2019-05-03T21:05:06.831Z,9.84
2019-05-03T21:07:39.881Z,9.83
2019-05-03T21:10:15.447Z,9.84
2019-05-03T21:12:46.547Z,9.86
2019-05-03T21:15:36.785Z,9.81
2019-05-03T21:18:22.007Z,9.75
2019-05-03T21:20:57.612Z,9.57
2019-05-03T21:23:31.372Z,9.67
2019-05-03T21:26:13.431Z,9.60
2019-05-03T21:28:44.920Z,9.51
2019-05-03T21:31:19.530Z,9.56
2019-05-03T21:33:52.747Z,9.44
2019-05-03T21:36:25.471Z,9.52
2019-05-03T21:38:58.231Z,9.41
2019-05-03T21:41:31.647Z,9.39
2019-05-03T21:44:06.794Z,9.38
2019-05-03T21:46:48.819Z,9.45
2019-05-03T21:49:25.308Z,9.45
2019-05-03T21:51:56.947Z,9.46
2019-05-03T21:54:28.155Z,9.48
2019-05-03T21:56:59.099Z,9.40
2019-05-03T21:59:38.401Z,9.38
2019-05-03T22:02:09.162Z,9.36
2019-05-03T22:04:40.739Z,9.38
2019-05-03T22:07:11.445Z,9.18
2019-05-03T22:09:42.752Z,9.27
2019-05-03T22:12:14.450Z,9.27
2019-05-03T22:14:54.485Z,9.09
2019-05-03T22:17:50.019Z,9.11
2019-05-03T22:20:31.858Z,9.07
2019-05-03T22:23:14.987Z,8.93
2019-05-03T22:25:45.668Z,8.84
2019-05-03T22:28:24.618Z,8.82
2019-05-03T22:31:04.366Z,8.78
2019-05-03T22:33:35.531Z,8.79
2019-05-03T22:36:08.893Z,8.73
2019-05-03T22:38:38.690Z,8.68
2019-05-03T22:41:09.207Z,8.65
2019-05-03T22:43:40.935Z,8.59
2019-05-03T22:46:11.668Z,8.58
2019-05-03T22:48:50.541Z,8.71
2019-05-03T22:51:21.204Z,8.59
2019-05-03T22:53:58.646Z,8.61
2019-05-03T22:56:29.198Z,8.56
2019-05-03T22:59:05.329Z,8.56
2019-05-03T23:01:36.658Z,8.48
2019-05-03T23:04:07.344Z,8.50
2019-05-03T23:06:38.099Z,8.46
2019-05-03T23:09:08.927Z,8.40
2019-05-03T23:11:39.587Z,8.31
2019-05-03T23:14:10.326Z,8.23
2019-05-03T23:16:46.485Z,8.27
2019-05-03T23:19:17.211Z,8.33
2019-05-03T23:21:54.319Z,8.32
2019-05-03T23:24:26.901Z,8.30
2019-05-03T23:26:57.479Z,8.29
2019-05-03T23:29:39.120Z,8.29
2019-05-03T23:32:09.680Z,8.31
2019-05-03T23:34:50.693Z,8.37
2019-05-03T23:37:21.342Z,8.33
2019-05-03T23:39:59.881Z,8.34
2019-05-03T23:42:35.126Z,8.15
2019-05-03T23:45:06.060Z,8.20
2019-05-03T23:47:38.284Z,8.06
2019-05-03T23:50:11.155Z,8.07
2019-05-03T23:52:42.828Z,8.08
2019-05-03T23:55:16.437Z,8.09
2019-05-03T23:57:47.090Z,7.96
